createdAt,value
2019-06-01T00:02:22.487Z,4.10
2019-06-01T00:04:52.904Z,4.62
2019-06-01T00:07:23.253Z,4.37
2019-06-01T00:09:53.567Z,4.58
2019-06-01T00:12:23.908Z,4.47
2019-06-01T00:14:54.186Z,4.65
2019-06-01T00:17:24.550Z,5.10
2019-06-01T00:19:55.827Z,4.87
2019-06-01T00:22:26.186Z,5.17
2019-06-01T00:24:56.492Z,5.15
2019-06-01T00:27:26.828Z,5.15
2019-06-01T00:29:57.146Z,4.80
2019-06-01T00:32:27.512Z,5.10
2019-06-01T00:34:57.785Z,4.97
2019-06-01T00:37:28.172Z,4.65
2019-06-01T00:39:58.473Z,5.50
2019-06-01T00:42:29.162Z,5.25
2019-06-01T00:44:59.453Z,5.50
2019-06-01T00:47:29.809Z,5.78
2019-06-01T00:50:00.091Z,5.83
2019-06-01T00:52:30.442Z,5.55
2019-06-01T00:55:00.743Z,5.83
2019-06-01T00:57:31.115Z,5.65
2019-06-01T01:00:01.410Z,6.33
2019-06-01T01:02:33.290Z,6.05
2019-06-01T01:05:18.043Z,6.03
2019-06-01T01:07:48.816Z,6.15
2019-06-01T01:10:19.401Z,6.33
2019-06-01T01:13:07.583Z,6.97
2019-06-01T01:15:37.999Z,6.60
2019-06-01T01:18:09.162Z,6.17
2019-06-01T01:20:39.642Z,6.90
2019-06-01T01:23:10.032Z,6.65
2019-06-01T01:25:40.345Z,6.70
2019-06-01T01:28:10.694Z,6.95
2019-06-01T01:30:42.010Z,7.03
2019-06-01T01:33:12.377Z,7.53
2019-06-01T01:35:42.678Z,7.40
2019-06-01T01:38:13.046Z,7.12
2019-06-01T01:40:43.346Z,7.65
2019-06-01T01:43:13.753Z,7.87
2019-06-01T01:45:44.052Z,6.87
2019-06-01T01:48:14.422Z,7.75
2019-06-01T01:50:44.715Z,7.22
2019-06-01T01:53:15.079Z,7.03
2019-06-01T01:55:45.398Z,7.62
2019-06-01T01:58:15.753Z,7.78
2019-06-01T02:00:47.895Z,8.03
2019-06-01T02:03:18.261Z,7.62
2019-06-01T02:05:48.556Z,7.25
2019-06-01T02:08:18.954Z,7.17
2019-06-01T02:10:49.254Z,7.10
2019-06-01T02:13:19.726Z,7.30
2019-06-01T02:15:50.028Z,7.35
2019-06-01T02:18:20.389Z,6.97
2019-06-01T02:20:50.698Z,6.65
2019-06-01T02:23:21.050Z,6.72
2019-06-01T02:25:52.773Z,6.80
2019-06-01T02:28:23.341Z,7.25
2019-06-01T02:30:53.958Z,6.75
2019-06-01T02:33:24.395Z,6.62
2019-06-01T02:35:56.186Z,6.90
2019-06-01T02:38:26.640Z,6.53
2019-06-01T02:40:57.442Z,6.40
2019-06-01T02:43:28.927Z,7.17
2019-06-01T02:46:00.543Z,7.00
2019-06-01T02:48:31.408Z,6.58
2019-06-01T02:51:02.022Z,6.92
2019-06-01T02:53:32.990Z,7.20
2019-06-01T02:56:04.302Z,6.90
2019-06-01T02:58:34.846Z,7.12
2019-06-01T03:01:10.994Z,7.37
2019-06-01T03:03:42.656Z,6.80
2019-06-01T03:06:14.930Z,7.60
2019-06-01T03:08:47.389Z,6.87
2019-06-01T03:11:19.748Z,7.10
2019-06-01T03:13:52.780Z,7.40
2019-06-01T03:16:24.683Z,7.72
2019-06-01T03:18:57.003Z,7.15
2019-06-01T03:21:30.226Z,7.23
2019-06-01T03:24:13.261Z,7.53
2019-06-01T03:26:46.612Z,7.12
2019-06-01T03:29:19.565Z,7.80
2019-06-01T03:31:49.893Z,7.72
2019-06-01T03:34:20.265Z,8.18
2019-06-01T03:36:50.650Z,8.33
2019-06-01T03:39:21.029Z,7.87
2019-06-01T03:41:52.130Z,8.58
2019-06-01T03:44:22.495Z,8.03
2019-06-01T03:46:52.804Z,8.53
2019-06-01T03:49:23.195Z,8.28
2019-06-01T03:51:53.617Z,8.35
2019-06-01T03:54:23.985Z,7.60
2019-06-01T03:56:54.290Z,7.72
2019-06-01T03:59:24.643Z,8.10
2019-06-01T04:01:55.976Z,8.25
2019-06-01T04:04:26.338Z,7.78
2019-06-01T04:06:57.631Z,7.55
2019-06-01T04:09:28.004Z,7.53
2019-06-01T04:11:58.302Z,7.50
2019-06-01T04:14:28.710Z,7.22
2019-06-01T04:16:59.021Z,8.20
2019-06-01T04:19:29.374Z,8.33
2019-06-01T04:21:59.667Z,8.63
2019-06-01T04:24:30.015Z,8.75
2019-06-01T04:27:00.324Z,8.23
2019-06-01T04:29:30.689Z,8.45
2019-06-01T04:32:02.396Z,8.35
2019-06-01T04:34:35.651Z,8.60
2019-06-01T04:37:05.180Z,8.70
2019-06-01T04:39:35.656Z,8.03
2019-06-01T04:42:05.966Z,8.65
2019-06-01T04:44:36.371Z,8.83
2019-06-01T04:47:06.779Z,9.00
2019-06-01T04:49:37.226Z,7.80
2019-06-01T04:52:08.749Z,8.83
2019-06-01T04:54:39.288Z,8.10
2019-06-01T04:57:10.932Z,8.15
2019-06-01T04:59:41.448Z,8.78
2019-06-01T05:02:13.053Z,7.53
2019-06-01T05:04:44.038Z,7.87
2019-06-01T05:07:15.510Z,7.50
2019-06-01T05:09:46.013Z,6.92
2019-06-01T05:12:16.306Z,7.25
2019-06-01T05:14:46.703Z,7.40
2019-06-01T05:17:17.002Z,7.03
2019-06-01T05:19:47.353Z,5.58
2019-06-01T05:22:17.661Z,5.65
2019-06-01T05:24:48.034Z,5.97
2019-06-01T05:27:18.322Z,5.78
2019-06-01T05:29:48.694Z,6.20
2019-06-01T05:32:18.978Z,6.87
2019-06-01T05:34:49.346Z,6.25
2019-06-01T05:37:19.659Z,6.78
2019-06-01T05:39:53.163Z,7.03
2019-06-01T05:42:23.478Z,6.65
2019-06-01T05:44:53.858Z,6.53
2019-06-01T05:47:24.165Z,6.25
2019-06-01T05:49:55.641Z,6.70
2019-06-01T05:52:25.953Z,5.83
2019-06-01T05:54:56.316Z,5.78
2019-06-01T05:57:26.641Z,5.87
2019-06-01T05:59:57.016Z,5.60
2019-06-01T06:02:28.316Z,5.22
2019-06-01T06:04:58.694Z,5.37
2019-06-01T06:07:28.980Z,5.45
2019-06-01T06:09:59.338Z,5.55
2019-06-01T06:12:29.635Z,5.10
2019-06-01T06:15:00.006Z,4.10
2019-06-01T06:17:30.309Z,4.15
2019-06-01T06:20:00.698Z,3.62
2019-06-01T06:22:32.212Z,4.05
2019-06-01T06:25:03.540Z,3.85
2019-06-01T06:27:33.826Z,3.25
2019-06-01T06:30:07.976Z,3.50
2019-06-01T06:32:39.292Z,3.17
2019-06-01T06:35:09.756Z,3.00
2019-06-01T06:37:42.326Z,3.12
2019-06-01T06:40:13.787Z,2.87
2019-06-01T06:42:44.151Z,3.30
2019-06-01T06:45:14.662Z,3.58
2019-06-01T06:47:44.926Z,3.40
2019-06-01T06:50:19.433Z,3.40
2019-06-01T06:52:49.748Z,2.98
2019-06-01T06:55:20.082Z,3.72
2019-06-01T06:57:50.697Z,3.55
2019-06-01T07:00:21.169Z,3.17
2019-06-01T07:02:52.024Z,2.95
2019-06-01T07:05:23.386Z,3.10
2019-06-01T07:07:54.025Z,2.87
2019-06-01T07:10:24.379Z,2.55
2019-06-01T07:12:54.669Z,2.52
2019-06-01T07:15:25.562Z,3.08
2019-06-01T07:17:57.053Z,2.40
2019-06-01T07:20:27.924Z,2.50
2019-06-01T07:22:58.267Z,2.33
2019-06-01T07:25:28.850Z,2.40
2019-06-01T07:27:59.250Z,2.15
2019-06-01T07:30:29.596Z,2.05
2019-06-01T07:32:59.902Z,2.00
2019-06-01T07:35:32.530Z,1.72
2019-06-01T07:38:02.971Z,2.80
2019-06-01T07:40:34.276Z,2.30
2019-06-01T07:43:04.571Z,1.70
2019-06-01T07:45:35.390Z,1.90
2019-06-01T07:48:05.752Z,2.20
2019-06-01T07:50:36.113Z,1.87
2019-06-01T07:53:06.402Z,1.98
2019-06-01T07:55:36.769Z,1.72
2019-06-01T07:58:08.057Z,1.92
2019-06-01T08:00:38.433Z,2.35
2019-06-01T08:03:08.718Z,2.60
2019-06-01T08:05:40.074Z,2.50
2019-06-01T08:08:10.376Z,2.58
2019-06-01T08:10:40.726Z,3.42
2019-06-01T08:13:11.006Z,2.85
2019-06-01T08:15:41.394Z,2.77
2019-06-01T08:18:11.774Z,2.45
2019-06-01T08:20:42.237Z,2.17
2019-06-01T08:23:12.546Z,2.72
2019-06-01T08:25:43.406Z,3.02
2019-06-01T08:28:13.698Z,2.50
2019-06-01T08:30:44.036Z,2.40
2019-06-01T08:33:14.303Z,2.30
2019-06-01T08:35:44.637Z,2.60
2019-06-01T08:38:15.869Z,2.98
2019-06-01T08:40:46.150Z,2.98
2019-06-01T08:43:18.008Z,3.67
2019-06-01T08:45:48.381Z,4.45
2019-06-01T08:48:18.726Z,4.37
2019-06-01T08:50:49.033Z,3.60
2019-06-01T08:53:19.365Z,4.90
2019-06-01T08:55:49.664Z,5.80
2019-06-01T08:58:20.024Z,4.15
2019-06-01T09:00:50.396Z,4.58
2019-06-01T09:03:20.713Z,5.00
2019-06-01T09:05:51.025Z,5.42
2019-06-01T09:08:23.774Z,5.03
2019-06-01T09:10:53.468Z,4.65
2019-06-01T09:13:25.012Z,5.12
2019-06-01T09:15:55.401Z,4.70
2019-06-01T09:18:25.780Z,5.40
2019-06-01T09:20:55.998Z,5.42
2019-06-01T09:23:27.506Z,2.65
2019-06-01T09:25:57.946Z,2.90
2019-06-01T09:28:31.988Z,2.67
2019-06-01T09:31:02.372Z,2.62
2019-06-01T09:33:32.740Z,2.02
2019-06-01T09:36:03.030Z,2.75
2019-06-01T09:38:33.773Z,2.00
2019-06-01T09:41:07.964Z,1.90
2019-06-01T09:43:38.201Z,1.70
2019-06-01T09:46:08.808Z,1.80
2019-06-01T09:48:39.145Z,1.40
2019-06-01T09:51:09.454Z,1.25
2019-06-01T09:53:39.740Z,1.22
2019-06-01T09:56:10.060Z,1.40
2019-06-01T09:58:40.474Z,1.20
2019-06-01T10:01:10.776Z,1.47
2019-06-01T10:03:41.097Z,1.37
2019-06-01T10:06:13.973Z,1.82
2019-06-01T10:08:43.240Z,1.30
2019-06-01T10:11:13.646Z,1.90
2019-06-01T10:13:43.899Z,1.87
2019-06-01T10:16:14.190Z,1.27
2019-06-01T10:18:44.558Z,1.70
2019-06-01T10:21:14.839Z,1.60
2019-06-01T10:23:49.260Z,2.47
2019-06-01T10:26:17.138Z,2.65
2019-06-01T10:28:47.406Z,2.80
2019-06-01T10:31:17.698Z,2.60
2019-06-01T10:33:51.304Z,2.40
2019-06-01T10:38:51.916Z,2.08
2019-06-01T10:41:22.302Z,2.17
2019-06-01T10:43:52.586Z,1.80
2019-06-01T10:46:22.892Z,1.77
2019-06-01T10:48:53.272Z,1.90
2019-06-01T10:51:23.555Z,2.12
2019-06-01T10:53:53.846Z,1.82
2019-06-01T10:56:24.177Z,1.72
2019-06-01T10:59:00.356Z,1.65
2019-06-01T11:01:26.441Z,1.92
2019-06-01T11:03:56.794Z,1.60
2019-06-01T11:06:36.651Z,1.42
2019-06-01T11:08:59.007Z,1.17
2019-06-01T11:11:29.403Z,1.60
2019-06-01T11:13:59.664Z,1.95
2019-06-01T11:16:29.973Z,1.87
2019-06-01T11:19:00.326Z,1.62
2019-06-01T11:21:31.575Z,1.30
2019-06-01T11:24:01.878Z,0.93
2019-06-01T11:26:33.258Z,1.25
2019-06-01T11:29:03.736Z,1.40
2019-06-01T11:31:34.037Z,1.50
2019-06-01T11:34:04.601Z,1.82
2019-06-01T11:36:36.118Z,2.20
2019-06-01T11:39:07.521Z,2.35
2019-06-01T11:41:38.465Z,2.00
2019-06-01T11:44:08.851Z,2.77
2019-06-01T11:46:39.162Z,2.87
2019-06-01T11:49:10.030Z,2.85
2019-06-01T11:51:41.500Z,2.20
2019-06-01T11:54:11.865Z,3.60
2019-06-01T11:56:43.304Z,3.35
2019-06-01T11:59:13.728Z,3.37
2019-06-01T12:01:44.201Z,3.50
2019-06-01T12:04:14.628Z,4.83
2019-06-01T12:06:46.223Z,3.52
2019-06-01T12:09:16.726Z,5.05
2019-06-01T12:11:47.134Z,4.70
2019-06-01T12:14:17.449Z,4.97
2019-06-01T12:16:50.560Z,4.05
2019-06-01T12:19:20.904Z,4.20
2019-06-01T12:21:51.254Z,3.72
2019-06-01T12:24:25.453Z,3.85
2019-06-01T12:26:53.709Z,4.85
2019-06-01T12:29:24.003Z,3.98
2019-06-01T12:31:54.295Z,3.50
2019-06-01T12:34:24.640Z,4.53
2019-06-01T12:36:54.907Z,4.47
2019-06-01T12:39:25.161Z,3.17
2019-06-01T12:41:55.549Z,3.00
2019-06-01T12:44:27.242Z,3.05
2019-06-01T12:46:57.564Z,3.40
2019-06-01T12:49:27.856Z,3.95
2019-06-01T12:51:58.220Z,2.47
2019-06-01T12:54:29.580Z,3.60
2019-06-01T12:56:59.912Z,2.87
2019-06-01T12:59:30.222Z,3.55
2019-06-01T13:02:00.583Z,3.22
2019-06-01T13:04:30.834Z,3.95
2019-06-01T13:07:01.169Z,3.30
2019-06-01T13:09:31.495Z,2.95
2019-06-01T13:12:03.443Z,3.12
2019-06-01T13:14:33.744Z,3.47
2019-06-01T13:17:07.716Z,4.05
2019-06-01T13:19:36.665Z,3.47
2019-06-01T13:22:07.035Z,4.37
2019-06-01T13:24:37.333Z,3.62
2019-06-01T13:27:08.038Z,3.37
2019-06-01T13:29:38.317Z,3.30
2019-06-01T13:32:08.734Z,3.42
2019-06-01T13:34:42.613Z,4.20
2019-06-01T13:37:14.420Z,3.62
2019-06-01T13:39:45.513Z,3.42
2019-06-01T13:42:16.727Z,4.47
2019-06-01T13:44:47.701Z,4.33
2019-06-01T13:47:18.005Z,3.12
2019-06-01T13:49:48.724Z,2.40
2019-06-01T13:52:20.422Z,2.80
2019-06-01T13:54:50.684Z,2.75
2019-06-01T13:57:21.032Z,2.30
2019-06-01T13:59:51.624Z,2.72
2019-06-01T14:02:23.287Z,2.40
2019-06-01T14:04:54.206Z,3.27
2019-06-01T14:07:24.698Z,3.35
2019-06-01T14:09:55.390Z,2.58
2019-06-01T14:12:25.725Z,2.35
2019-06-01T14:14:56.005Z,2.40
2019-06-01T14:17:26.346Z,2.02
2019-06-01T14:19:56.608Z,2.15
2019-06-01T14:22:27.026Z,2.33
2019-06-01T14:25:11.467Z,2.67
2019-06-01T14:27:29.257Z,2.27
2019-06-01T14:29:59.525Z,2.33
2019-06-01T14:32:30.459Z,1.90
2019-06-01T14:35:00.755Z,2.60
2019-06-01T14:37:31.076Z,2.08
2019-06-01T14:40:01.391Z,2.77
2019-06-01T14:42:31.747Z,3.67
2019-06-01T14:45:02.047Z,4.15
2019-06-01T14:47:32.497Z,3.15
2019-06-01T14:50:03.102Z,3.80
2019-06-01T14:52:35.285Z,3.70
2019-06-01T14:55:07.315Z,3.20
2019-06-01T14:57:37.668Z,3.42
2019-06-01T15:00:09.622Z,3.02
2019-06-01T15:02:40.051Z,3.12
2019-06-01T15:05:10.648Z,3.77
2019-06-01T15:07:40.977Z,3.98
2019-06-01T15:10:11.941Z,3.62
2019-06-01T15:12:42.338Z,4.85
2019-06-01T15:15:12.917Z,5.17
2019-06-01T15:17:43.246Z,5.05
2019-06-01T15:20:14.838Z,4.70
2019-06-01T15:22:45.206Z,4.60
2019-06-01T15:25:18.042Z,4.03
2019-06-01T15:27:48.419Z,3.95
2019-06-01T15:30:18.906Z,3.33
2019-06-01T15:32:50.050Z,3.60
2019-06-01T15:35:20.460Z,2.58
2019-06-01T15:37:51.343Z,2.37
2019-06-01T15:40:22.813Z,3.17
2019-06-01T15:42:53.593Z,3.85
2019-06-01T15:45:24.024Z,4.40
2019-06-01T15:47:55.554Z,3.72
2019-06-01T15:50:25.957Z,3.85
2019-06-01T15:52:57.059Z,4.53
2019-06-01T15:55:27.595Z,3.90
2019-06-01T15:57:58.497Z,4.03
2019-06-01T16:00:28.906Z,4.05
2019-06-01T16:02:59.243Z,3.50
2019-06-01T16:05:29.546Z,4.22
2019-06-01T16:07:59.914Z,3.80
2019-06-01T16:10:30.199Z,4.33
2019-06-01T16:13:01.691Z,3.42
2019-06-01T16:15:31.945Z,3.58
2019-06-01T16:18:02.261Z,5.05
2019-06-01T16:20:33.521Z,4.67
2019-06-01T16:23:05.064Z,4.62
2019-06-01T16:25:36.666Z,5.30
2019-06-01T16:28:07.059Z,4.58
2019-06-01T16:30:37.328Z,5.25
2019-06-01T16:33:07.788Z,4.33
2019-06-01T16:35:38.108Z,4.12
2019-06-01T16:38:08.433Z,4.58
2019-06-01T16:40:38.731Z,3.75
2019-06-01T16:43:09.121Z,5.62
2019-06-01T16:45:39.417Z,5.28
2019-06-01T16:48:09.783Z,5.10
2019-06-01T16:50:40.041Z,5.28
2019-06-01T16:53:10.369Z,5.67
2019-06-01T16:55:40.632Z,6.05
2019-06-01T16:58:11.012Z,4.40
2019-06-01T17:00:41.411Z,5.28
2019-06-01T17:03:11.763Z,5.40
2019-06-01T17:05:42.050Z,5.08
2019-06-01T17:08:15.419Z,5.50
2019-06-01T17:10:45.352Z,7.60
2019-06-01T17:13:15.744Z,7.72
2019-06-01T17:15:46.014Z,6.50
2019-06-01T17:18:16.336Z,7.55
2019-06-01T17:20:49.287Z,6.15
2019-06-01T17:25:50.601Z,5.85
2019-06-01T17:28:20.930Z,6.42
2019-06-01T17:30:51.438Z,6.20
2019-06-01T17:33:22.136Z,5.80
2019-06-01T17:35:52.726Z,5.65
2019-06-01T17:38:23.056Z,5.42
2019-06-01T17:40:53.385Z,5.35
2019-06-01T17:43:23.781Z,4.25
2019-06-01T17:45:54.081Z,5.75
2019-06-01T17:48:26.776Z,5.20
2019-06-01T17:50:56.358Z,4.22
2019-06-01T17:53:26.680Z,5.00
2019-06-01T17:55:56.982Z,5.33
2019-06-01T17:58:27.281Z,5.47
2019-06-01T18:00:57.545Z,5.53
2019-06-01T18:03:27.872Z,5.95
2019-06-01T18:05:58.171Z,5.40
2019-06-01T18:08:28.501Z,5.60
2019-06-01T18:10:58.795Z,6.15
2019-06-01T18:13:29.210Z,6.47
2019-06-01T18:15:59.502Z,5.70
2019-06-01T18:18:29.837Z,5.15
2019-06-01T18:21:00.098Z,4.95
2019-06-01T18:23:30.441Z,5.90
2019-06-01T18:26:00.738Z,5.30
2019-06-01T18:28:31.065Z,5.25
2019-06-01T18:31:02.582Z,5.15
2019-06-01T18:33:35.991Z,4.85
2019-06-01T18:36:07.449Z,4.58
2019-06-01T18:38:37.991Z,4.95
2019-06-01T18:41:14.538Z,4.97
2019-06-01T18:43:40.313Z,5.20
2019-06-01T18:46:10.611Z,4.78
2019-06-01T18:48:41.077Z,4.95
2019-06-01T18:51:12.321Z,5.15
2019-06-01T18:53:42.784Z,6.12
2019-06-01T18:56:14.288Z,6.03
2019-06-01T18:58:44.753Z,6.42
2019-06-01T19:01:15.246Z,6.25
2019-06-01T19:03:46.714Z,6.75
2019-06-01T19:06:16.982Z,5.85
2019-06-01T19:08:47.314Z,4.72
2019-06-01T19:11:30.512Z,4.83
2019-06-01T19:13:49.549Z,4.62
2019-06-01T19:16:19.842Z,5.15
2019-06-01T19:18:50.207Z,5.67
2019-06-01T19:21:20.498Z,4.78
2019-06-01T19:23:50.825Z,5.75
2019-06-01T19:26:22.222Z,5.60
2019-06-01T19:28:52.979Z,5.42
2019-06-01T19:31:23.271Z,6.28
2019-06-01T19:33:53.623Z,6.67
2019-06-01T19:36:24.022Z,7.15
2019-06-01T19:38:55.321Z,7.58
2019-06-01T19:41:25.584Z,8.25
2019-06-01T19:43:55.928Z,8.38
2019-06-01T19:46:26.234Z,8.50
2019-06-01T19:48:56.582Z,7.60
2019-06-01T19:51:26.893Z,7.60
2019-06-01T19:53:57.247Z,6.65
2019-06-01T19:56:27.515Z,6.40
2019-06-01T19:58:57.854Z,6.45
2019-06-01T20:01:28.156Z,5.85
2019-06-01T20:03:58.484Z,6.30
2019-06-01T20:06:28.769Z,6.33
2019-06-01T20:09:00.143Z,6.35
2019-06-01T20:11:30.447Z,5.87
2019-06-01T20:14:00.808Z,6.30
2019-06-01T20:16:31.198Z,4.95
2019-06-01T20:19:01.564Z,5.28
2019-06-01T20:21:31.846Z,4.85
2019-06-01T20:24:02.219Z,5.05
2019-06-01T20:26:42.134Z,4.50
2019-06-01T20:29:04.960Z,5.03
2019-06-01T20:31:35.258Z,4.25
2019-06-01T20:34:05.623Z,4.35
2019-06-01T20:36:35.910Z,4.22
2019-06-01T20:39:08.136Z,4.62
2019-06-01T20:41:38.401Z,4.40
2019-06-01T20:44:08.777Z,4.70
2019-06-01T20:46:39.074Z,5.28
2019-06-01T20:49:09.412Z,5.50
2019-06-01T20:51:39.699Z,4.80
2019-06-01T20:54:10.032Z,4.87
2019-06-01T20:56:40.294Z,4.85
2019-06-01T20:59:10.613Z,4.83
2019-06-01T21:01:40.907Z,5.15
2019-06-01T21:04:11.229Z,5.28
2019-06-01T21:06:41.505Z,5.60
2019-06-01T21:09:11.829Z,5.25
2019-06-01T21:11:42.085Z,5.22
2019-06-01T21:14:12.429Z,4.65
2019-06-01T21:16:42.698Z,4.85
2019-06-01T21:19:14.106Z,4.60
2019-06-01T21:21:44.416Z,5.12
2019-06-01T21:24:16.710Z,4.97
2019-06-01T21:26:47.217Z,4.92
2019-06-01T21:29:18.561Z,5.22
2019-06-01T21:31:49.154Z,5.70
2019-06-01T21:34:20.979Z,5.83
2019-06-01T21:36:51.613Z,5.20
2019-06-01T21:39:22.069Z,6.00
2019-06-01T21:41:52.333Z,5.45
2019-06-01T21:44:23.717Z,5.47
2019-06-01T21:46:54.088Z,4.80
2019-06-01T21:49:24.400Z,5.10
2019-06-01T21:51:54.704Z,5.42
2019-06-01T21:54:26.326Z,4.60
2019-06-01T21:56:56.802Z,4.53
2019-06-01T21:59:28.677Z,4.97
2019-06-01T22:01:59.033Z,4.72
2019-06-01T22:04:29.394Z,4.85
2019-06-01T22:06:59.690Z,4.92
2019-06-01T22:09:30.112Z,4.40
2019-06-01T22:12:00.408Z,4.75
2019-06-01T22:14:30.729Z,5.05
2019-06-01T22:17:01.002Z,4.78
2019-06-01T22:19:32.362Z,5.87
2019-06-01T22:22:02.625Z,4.75
2019-06-01T22:24:32.954Z,5.12
2019-06-01T22:27:03.237Z,5.15
2019-06-01T22:29:33.594Z,5.33
2019-06-01T22:32:03.861Z,5.05
2019-06-01T22:34:34.226Z,5.60
2019-06-01T22:37:04.584Z,5.62
2019-06-01T22:39:34.948Z,4.50
2019-06-01T22:42:05.201Z,4.95
2019-06-01T22:44:35.945Z,5.58
2019-06-01T22:47:06.252Z,4.92
2019-06-01T22:49:36.629Z,5.50
2019-06-01T22:52:06.918Z,5.80
2019-06-01T22:54:37.289Z,6.03
2019-06-01T22:57:07.589Z,8.03
2019-06-01T22:59:39.012Z,7.40
2019-06-01T23:02:09.325Z,8.38
2019-06-01T23:04:39.786Z,7.75
2019-06-01T23:07:10.094Z,8.08
2019-06-01T23:09:40.477Z,7.70
2019-06-01T23:12:10.777Z,6.95
2019-06-01T23:14:41.149Z,7.20
2019-06-01T23:17:11.459Z,7.05
2019-06-01T23:19:41.825Z,6.92
2019-06-01T23:22:12.110Z,6.28
2019-06-01T23:24:42.476Z,6.67
2019-06-01T23:27:12.785Z,6.33
2019-06-01T23:29:43.245Z,6.83
2019-06-01T23:32:13.538Z,6.60
2019-06-01T23:34:43.886Z,6.55
2019-06-01T23:37:14.199Z,6.17
2019-06-01T23:39:44.736Z,6.40
2019-06-01T23:42:15.080Z,6.50
2019-06-01T23:44:45.412Z,6.10
2019-06-01T23:47:15.683Z,6.08
2019-06-01T23:49:46.029Z,6.35
2019-06-01T23:52:16.337Z,6.42
2019-06-01T23:54:46.678Z,5.85
2019-06-01T23:57:16.933Z,6.53
2019-06-01T23:59:47.290Z,5.75
